Terminal Aerodrome Forecast
Issued by NWS Louisville, KY

Home | Current Version | Previous Version | Text Only | Print | Product List | Glossary On
Versions: 1 2 3 4 5 6 7 8 9 10 11 12 13 14 15
601
FTUS43 KLMK 041123
TAFSDF
TAF
KSDF 041123Z 0412/0518 09006KT P6SM OVC070
     FM041500 11006KT P6SM OVC028
     FM041800 13007KT P6SM OVC013
     FM042000 VRB04KT 4SM -RA BR OVC006
     FM050200 29008KT 6SM -DZ BR OVC006
     FM051000 VRB04KT P6SM OVC009
     FM051500 08004KT P6SM OVC013=

USA.gov is the U.S. government's official web portal to all federal, state and local government web resources and services.